sensor_id;sensor_type;location;lat;lon;timestamp;temperature;humidity
74923;HTU21D;64715;44.760;37.678;2023-07-09T00:00:55;23.09;84.17
74923;HTU21D;64715;44.760;37.678;2023-07-09T00:01:58;23.10;84.27
74923;HTU21D;64715;44.760;37.678;2023-07-09T00:02:59;23.08;84.19
74923;HTU21D;64715;44.760;37.678;2023-07-09T00:04:00;23.09;84.27
74923;HTU21D;64715;44.760;37.678;2023-07-09T00:05:01;23.08;84.33
74923;HTU21D;64715;44.760;37.678;2023-07-09T00:06:02;23.09;84.37
74923;HTU21D;64715;44.760;37.678;2023-07-09T00:07:04;23.09;84.19
74923;HTU21D;64715;44.760;37.678;2023-07-09T00:09:21;23.10;84.29
74923;HTU21D;64715;44.760;37.678;2023-07-09T00:10:22;23.10;84.27
74923;HTU21D;64715;44.760;37.678;2023-07-09T00:11:23;23.09;84.27
74923;HTU21D;64715;44.760;37.678;2023-07-09T00:12:25;23.09;84.32
74923;HTU21D;64715;44.760;37.678;2023-07-09T00:13:27;23.09;84.25
74923;HTU21D;64715;44.760;37.678;2023-07-09T00:14:29;23.09;84.42
74923;HTU21D;64715;44.760;37.678;2023-07-09T00:15:30;23.11;84.35
74923;HTU21D;64715;44.760;37.678;2023-07-09T00:16:31;23.11;84.29
74923;HTU21D;64715;44.760;37.678;2023-07-09T00:17:33;23.10;84.33
74923;HTU21D;64715;44.760;37.678;2023-07-09T00:18:34;23.10;84.26
74923;HTU21D;64715;44.760;37.678;2023-07-09T00:19:35;23.09;84.22
74923;HTU21D;64715;44.760;37.678;2023-07-09T00:20:36;23.10;84.12
74923;HTU21D;64715;44.760;37.678;2023-07-09T00:21:37;23.10;84.26
74923;HTU21D;64715;44.760;37.678;2023-07-09T00:22:38;23.10;84.07
74923;HTU21D;64715;44.760;37.678;2023-07-09T00:23:39;23.09;84.13
74923;HTU21D;64715;44.760;37.678;2023-07-09T00:24:47;23.08;84.11
74923;HTU21D;64715;44.760;37.678;2023-07-09T00:25:48;23.07;83.93
74923;HTU21D;64715;44.760;37.678;2023-07-09T00:26:49;23.07;83.89
74923;HTU21D;64715;44.760;37.678;2023-07-09T00:27:51;23.05;83.92
74923;HTU21D;64715;44.760;37.678;2023-07-09T00:28:52;23.03;83.84
74923;HTU21D;64715;44.760;37.678;2023-07-09T00:29:53;23.02;83.85
74923;HTU21D;64715;44.760;37.678;2023-07-09T00:30:54;23.00;83.82
74923;HTU21D;64715;44.760;37.678;2023-07-09T00:31:54;22.99;83.84
74923;HTU21D;64715;44.760;37.678;2023-07-09T00:32:56;22.98;83.82
74923;HTU21D;64715;44.760;37.678;2023-07-09T00:33:57;22.98;83.92
74923;HTU21D;64715;44.760;37.678;2023-07-09T00:35:00;22.99;83.94
74923;HTU21D;64715;44.760;37.678;2023-07-09T00:36:21;22.98;84.08
74923;HTU21D;64715;44.760;37.678;2023-07-09T00:37:25;22.98;83.99
74923;HTU21D;64715;44.760;37.678;2023-07-09T00:38:26;22.97;84.12
74923;HTU21D;64715;44.760;37.678;2023-07-09T00:39:27;22.97;84.15
74923;HTU21D;64715;44.760;37.678;2023-07-09T00:40:28;22.98;84.22
74923;HTU21D;64715;44.760;37.678;2023-07-09T00:41:32;22.98;84.26
74923;HTU21D;64715;44.760;37.678;2023-07-09T00:42:34;22.99;84.32
74923;HTU21D;64715;44.760;37.678;2023-07-09T00:43:37;23.00;84.27
74923;HTU21D;64715;44.760;37.678;2023-07-09T00:44:38;23.01;84.45
74923;HTU21D;64715;44.760;37.678;2023-07-09T00:45:41;23.01;84.39
74923;HTU21D;64715;44.760;37.678;2023-07-09T00:48:01;23.05;84.52
74923;HTU21D;64715;44.760;37.678;2023-07-09T00:49:08;23.06;84.42
74923;HTU21D;64715;44.760;37.678;2023-07-09T00:50:26;23.07;84.39
74923;HTU21D;64715;44.760;37.678;2023-07-09T00:51:29;23.07;84.35
74923;HTU21D;64715;44.760;37.678;2023-07-09T00:52:53;23.07;84.44
74923;HTU21D;64715;44.760;37.678;2023-07-09T00:53:58;23.06;84.38
74923;HTU21D;64715;44.760;37.678;2023-07-09T00:55:05;23.06;84.46
74923;HTU21D;64715;44.760;37.678;2023-07-09T00:56:09;23.07;84.41
74923;HTU21D;64715;44.760;37.678;2023-07-09T00:57:16;23.07;84.53
74923;HTU21D;64715;44.760;37.678;2023-07-09T00:58:20;23.06;84.52
74923;HTU21D;64715;44.760;37.678;2023-07-09T00:59:24;23.08;84.52
74923;HTU21D;64715;44.760;37.678;2023-07-09T01:00:36;23.09;84.48
74923;HTU21D;64715;44.760;37.678;2023-07-09T01:01:46;23.08;84.45
74923;HTU21D;64715;44.760;37.678;2023-07-09T01:02:50;23.09;84.62
74923;HTU21D;64715;44.760;37.678;2023-07-09T01:03:53;23.10;84.51
74923;HTU21D;64715;44.760;37.678;2023-07-09T01:05:01;23.10;84.61
74923;HTU21D;64715;44.760;37.678;2023-07-09T01:06:05;23.10;84.63
74923;HTU21D;64715;44.760;37.678;2023-07-09T01:07:06;23.10;84.53
74923;HTU21D;64715;44.760;37.678;2023-07-09T01:08:07;23.12;84.64
74923;HTU21D;64715;44.760;37.678;2023-07-09T01:09:10;23.12;84.71
74923;HTU21D;64715;44.760;37.678;2023-07-09T01:10:13;23.13;84.63
74923;HTU21D;64715;44.760;37.678;2023-07-09T01:11:16;23.13;84.61
74923;HTU21D;64715;44.760;37.678;2023-07-09T01:12:22;23.14;84.66
74923;HTU21D;64715;44.760;37.678;2023-07-09T01:13:24;23.14;84.70
74923;HTU21D;64715;44.760;37.678;2023-07-09T01:14:27;23.16;84.74
74923;HTU21D;64715;44.760;37.678;2023-07-09T01:15:28;23.15;84.77
74923;HTU21D;64715;44.760;37.678;2023-07-09T01:16:31;23.16;84.73
74923;HTU21D;64715;44.760;37.678;2023-07-09T01:17:34;23.16;84.71
74923;HTU21D;64715;44.760;37.678;2023-07-09T01:18:35;23.20;84.81
74923;HTU21D;64715;44.760;37.678;2023-07-09T01:19:39;23.20;84.74
74923;HTU21D;64715;44.760;37.678;2023-07-09T01:20:43;23.20;84.81
74923;HTU21D;64715;44.760;37.678;2023-07-09T01:21:45;23.21;84.78
74923;HTU21D;64715;44.760;37.678;2023-07-09T01:22:50;23.21;84.93
74923;HTU21D;64715;44.760;37.678;2023-07-09T01:23:56;23.22;84.84
74923;HTU21D;64715;44.760;37.678;2023-07-09T01:25:05;23.24;84.79
74923;HTU21D;64715;44.760;37.678;2023-07-09T01:26:07;23.23;84.93
74923;HTU21D;64715;44.760;37.678;2023-07-09T01:27:08;23.25;84.71
74923;HTU21D;64715;44.760;37.678;2023-07-09T01:28:10;23.26;84.85
74923;HTU21D;64715;44.760;37.678;2023-07-09T01:29:11;23.27;84.77
74923;HTU21D;64715;44.760;37.678;2023-07-09T01:30:22;23.27;84.71
74923;HTU21D;64715;44.760;37.678;2023-07-09T01:31:23;23.28;84.71
74923;HTU21D;64715;44.760;37.678;2023-07-09T01:32:24;23.28;84.71
74923;HTU21D;64715;44.760;37.678;2023-07-09T01:33:27;23.28;84.52
74923;HTU21D;64715;44.760;37.678;2023-07-09T01:34:28;23.29;84.56
74923;HTU21D;64715;44.760;37.678;2023-07-09T01:35:34;23.28;84.44
74923;HTU21D;64715;44.760;37.678;2023-07-09T01:36:36;23.27;84.42
74923;HTU21D;64715;44.760;37.678;2023-07-09T01:37:42;23.26;84.31
74923;HTU21D;64715;44.760;37.678;2023-07-09T01:38:44;23.26;84.32
74923;HTU21D;64715;44.760;37.678;2023-07-09T01:39:46;23.25;84.24
74923;HTU21D;64715;44.760;37.678;2023-07-09T01:40:48;23.25;84.23
74923;HTU21D;64715;44.760;37.678;2023-07-09T01:41:49;23.23;84.18
74923;HTU21D;64715;44.760;37.678;2023-07-09T01:42:51;23.23;84.16
74923;HTU21D;64715;44.760;37.678;2023-07-09T01:43:52;23.23;84.00
74923;HTU21D;64715;44.760;37.678;2023-07-09T01:44:54;23.21;84.05
74923;HTU21D;64715;44.760;37.678;2023-07-09T01:45:55;23.20;84.04
74923;HTU21D;64715;44.760;37.678;2023-07-09T01:46:58;23.17;83.97
74923;HTU21D;64715;44.760;37.678;2023-07-09T01:47:59;23.16;83.87
74923;HTU21D;64715;44.760;37.678;2023-07-09T01:49:00;23.16;83.90
74923;HTU21D;64715;44.760;37.678;2023-07-09T01:50:00;23.15;83.87
74923;HTU21D;64715;44.760;37.678;2023-07-09T01:51:03;23.14;83.89
74923;HTU21D;64715;44.760;37.678;2023-07-09T01:52:05;23.15;83.94
74923;HTU21D;64715;44.760;37.678;2023-07-09T01:53:12;23.14;84.02
74923;HTU21D;64715;44.760;37.678;2023-07-09T01:54:15;23.14;84.00
74923;HTU21D;64715;44.760;37.678;2023-07-09T01:55:18;23.14;84.00
74923;HTU21D;64715;44.760;37.678;2023-07-09T01:56:19;23.16;83.97
74923;HTU21D;64715;44.760;37.678;2023-07-09T01:57:22;23.15;84.12
74923;HTU21D;64715;44.760;37.678;2023-07-09T01:58:29;23.16;84.08
74923;HTU21D;64715;44.760;37.678;2023-07-09T01:59:32;23.16;84.16
74923;HTU21D;64715;44.760;37.678;2023-07-09T02:00:34;23.18;84.29
74923;HTU21D;64715;44.760;37.678;2023-07-09T02:01:38;23.18;84.19
74923;HTU21D;64715;44.760;37.678;2023-07-09T02:02:41;23.20;84.24
74923;HTU21D;64715;44.760;37.678;2023-07-09T02:03:46;23.22;84.24
74923;HTU21D;64715;44.760;37.678;2023-07-09T02:04:50;23.24;84.35
74923;HTU21D;64715;44.760;37.678;2023-07-09T02:05:54;23.24;84.40
74923;HTU21D;64715;44.760;37.678;2023-07-09T02:06:56;23.25;84.26
74923;HTU21D;64715;44.760;37.678;2023-07-09T02:07:58;23.25;84.27
74923;HTU21D;64715;44.760;37.678;2023-07-09T02:08:59;23.26;84.39
74923;HTU21D;64715;44.760;37.678;2023-07-09T02:10:00;23.27;84.31
74923;HTU21D;64715;44.760;37.678;2023-07-09T02:11:02;23.28;84.32
74923;HTU21D;64715;44.760;37.678;2023-07-09T02:12:03;23.28;84.21
74923;HTU21D;64715;44.760;37.678;2023-07-09T02:13:04;23.27;84.21
74923;HTU21D;64715;44.760;37.678;2023-07-09T02:14:05;23.27;84.30
74923;HTU21D;64715;44.760;37.678;2023-07-09T02:15:07;23.29;84.29
74923;HTU21D;64715;44.760;37.678;2023-07-09T02:16:08;23.29;84.27
74923;HTU21D;64715;44.760;37.678;2023-07-09T02:17:13;23.29;84.35
74923;HTU21D;64715;44.760;37.678;2023-07-09T02:18:14;23.29;84.28
74923;HTU21D;64715;44.760;37.678;2023-07-09T02:19:17;23.29;84.39
74923;HTU21D;64715;44.760;37.678;2023-07-09T02:20:18;23.30;84.36
74923;HTU21D;64715;44.760;37.678;2023-07-09T02:21:19;23.31;84.26
74923;HTU21D;64715;44.760;37.678;2023-07-09T02:22:20;23.31;84.28
74923;HTU21D;64715;44.760;37.678;2023-07-09T02:23:26;23.34;84.40
74923;HTU21D;64715;44.760;37.678;2023-07-09T02:24:27;23.32;84.32
74923;HTU21D;64715;44.760;37.678;2023-07-09T02:25:28;23.35;84.31
74923;HTU21D;64715;44.760;37.678;2023-07-09T02:26:29;23.35;84.36
74923;HTU21D;64715;44.760;37.678;2023-07-09T02:27:30;23.36;84.54
74923;HTU21D;64715;44.760;37.678;2023-07-09T02:28:31;23.37;84.43
74923;HTU21D;64715;44.760;37.678;2023-07-09T02:29:32;23.38;84.48
74923;HTU21D;64715;44.760;37.678;2023-07-09T02:30:33;23.41;84.32
74923;HTU21D;64715;44.760;37.678;2023-07-09T02:31:34;23.42;84.32
74923;HTU21D;64715;44.760;37.678;2023-07-09T02:32:35;23.41;84.33
74923;HTU21D;64715;44.760;37.678;2023-07-09T02:33:36;23.43;84.38
74923;HTU21D;64715;44.760;37.678;2023-07-09T02:34:37;23.43;84.39
74923;HTU21D;64715;44.760;37.678;2023-07-09T02:35:39;23.45;84.35
74923;HTU21D;64715;44.760;37.678;2023-07-09T02:36:40;23.46;84.33
74923;HTU21D;64715;44.760;37.678;2023-07-09T02:37:43;23.47;84.29
74923;HTU21D;64715;44.760;37.678;2023-07-09T02:38:44;23.49;84.36
74923;HTU21D;64715;44.760;37.678;2023-07-09T02:39:45;23.49;84.32
74923;HTU21D;64715;44.760;37.678;2023-07-09T02:40:46;23.51;84.32
74923;HTU21D;64715;44.760;37.678;2023-07-09T02:41:48;23.51;84.31
74923;HTU21D;64715;44.760;37.678;2023-07-09T02:42:49;23.52;84.35
74923;HTU21D;64715;44.760;37.678;2023-07-09T02:43:52;23.53;84.36
74923;HTU21D;64715;44.760;37.678;2023-07-09T02:44:54;23.55;84.29
74923;HTU21D;64715;44.760;37.678;2023-07-09T02:45:58;23.57;84.33
74923;HTU21D;64715;44.760;37.678;2023-07-09T02:46:59;23.57;84.41
74923;HTU21D;64715;44.760;37.678;2023-07-09T02:48:02;23.59;84.34
74923;HTU21D;64715;44.760;37.678;2023-07-09T02:49:11;23.60;84.35
74923;HTU21D;64715;44.760;37.678;2023-07-09T02:50:12;23.64;84.32
74923;HTU21D;64715;44.760;37.678;2023-07-09T02:51:13;23.66;84.43
74923;HTU21D;64715;44.760;37.678;2023-07-09T02:52:14;23.67;84.31
74923;HTU21D;64715;44.760;37.678;2023-07-09T02:53:15;23.70;84.28
74923;HTU21D;64715;44.760;37.678;2023-07-09T02:54:16;23.75;84.26
74923;HTU21D;64715;44.760;37.678;2023-07-09T02:55:17;23.77;84.25
74923;HTU21D;64715;44.760;37.678;2023-07-09T02:56:18;23.80;84.19
74923;HTU21D;64715;44.760;37.678;2023-07-09T02:57:19;23.84;84.23
74923;HTU21D;64715;44.760;37.678;2023-07-09T02:58:20;23.87;84.13
74923;HTU21D;64715;44.760;37.678;2023-07-09T02:59:21;23.91;84.05
74923;HTU21D;64715;44.760;37.678;2023-07-09T03:00:22;23.95;84.04
74923;HTU21D;64715;44.760;37.678;2023-07-09T03:01:24;23.98;84.04
74923;HTU21D;64715;44.760;37.678;2023-07-09T03:02:27;24.02;83.97
74923;HTU21D;64715;44.760;37.678;2023-07-09T03:03:30;24.05;84.00
74923;HTU21D;64715;44.760;37.678;2023-07-09T03:04:31;24.09;83.94
74923;HTU21D;64715;44.760;37.678;2023-07-09T03:05:33;24.12;83.87
74923;HTU21D;64715;44.760;37.678;2023-07-09T03:06:35;24.15;83.84
74923;HTU21D;64715;44.760;37.678;2023-07-09T03:07:37;24.18;83.72
74923;HTU21D;64715;44.760;37.678;2023-07-09T03:08:38;24.23;83.75
74923;HTU21D;64715;44.760;37.678;2023-07-09T03:09:39;24.27;83.65
74923;HTU21D;64715;44.760;37.678;2023-07-09T03:10:40;24.29;83.66
74923;HTU21D;64715;44.760;37.678;2023-07-09T03:11:41;24.33;83.67
74923;HTU21D;64715;44.760;37.678;2023-07-09T03:12:42;24.38;83.64
74923;HTU21D;64715;44.760;37.678;2023-07-09T03:13:43;24.42;83.62
74923;HTU21D;64715;44.760;37.678;2023-07-09T03:14:48;24.46;83.52
74923;HTU21D;64715;44.760;37.678;2023-07-09T03:15:57;24.54;83.43
74923;HTU21D;64715;44.760;37.678;2023-07-09T03:16:58;24.55;83.40
74923;HTU21D;64715;44.760;37.678;2023-07-09T03:17:59;24.60;83.49
74923;HTU21D;64715;44.760;37.678;2023-07-09T03:19:01;24.64;83.24
74923;HTU21D;64715;44.760;37.678;2023-07-09T03:20:04;24.68;83.25
74923;HTU21D;64715;44.760;37.678;2023-07-09T03:21:06;24.71;83.16
74923;HTU21D;64715;44.760;37.678;2023-07-09T03:22:08;24.75;83.06
74923;HTU21D;64715;44.760;37.678;2023-07-09T03:23:09;24.79;83.13
74923;HTU21D;64715;44.760;37.678;2023-07-09T03:24:10;24.82;83.04
74923;HTU21D;64715;44.760;37.678;2023-07-09T03:25:12;24.86;82.97
74923;HTU21D;64715;44.760;37.678;2023-07-09T03:26:13;24.87;82.88
74923;HTU21D;64715;44.760;37.678;2023-07-09T03:27:14;24.89;82.77
74923;HTU21D;64715;44.760;37.678;2023-07-09T03:28:15;24.89;82.68
74923;HTU21D;64715;44.760;37.678;2023-07-09T03:29:16;24.91;82.82
74923;HTU21D;64715;44.760;37.678;2023-07-09T03:30:17;24.92;82.67
74923;HTU21D;64715;44.760;37.678;2023-07-09T03:31:19;24.94;82.49
74923;HTU21D;64715;44.760;37.678;2023-07-09T03:32:20;24.98;82.39
74923;HTU21D;64715;44.760;37.678;2023-07-09T03:33:21;24.99;82.42
74923;HTU21D;64715;44.760;37.678;2023-07-09T03:34:22;24.99;82.36
74923;HTU21D;64715;44.760;37.678;2023-07-09T03:35:23;25.00;82.20
74923;HTU21D;64715;44.760;37.678;2023-07-09T03:36:24;25.01;82.22
74923;HTU21D;64715;44.760;37.678;2023-07-09T03:37:25;25.01;82.07
74923;HTU21D;64715;44.760;37.678;2023-07-09T03:38:26;25.01;82.09
74923;HTU21D;64715;44.760;37.678;2023-07-09T03:39:27;25.04;82.00
74923;HTU21D;64715;44.760;37.678;2023-07-09T03:40:28;25.06;81.77
74923;HTU21D;64715;44.760;37.678;2023-07-09T03:41:29;25.08;81.79
74923;HTU21D;64715;44.760;37.678;2023-07-09T03:42:29;25.09;81.78
74923;HTU21D;64715;44.760;37.678;2023-07-09T03:43:30;25.10;81.68
74923;HTU21D;64715;44.760;37.678;2023-07-09T03:44:31;25.13;81.76
74923;HTU21D;64715;44.760;37.678;2023-07-09T03:45:33;25.14;81.64
74923;HTU21D;64715;44.760;37.678;2023-07-09T03:46:34;25.15;81.48
74923;HTU21D;64715;44.760;37.678;2023-07-09T03:47:35;25.17;81.41
74923;HTU21D;64715;44.760;37.678;2023-07-09T03:48:36;25.17;81.37
74923;HTU21D;64715;44.760;37.678;2023-07-09T03:49:38;25.18;81.23
74923;HTU21D;64715;44.760;37.678;2023-07-09T03:50:39;25.20;81.36
74923;HTU21D;64715;44.760;37.678;2023-07-09T03:51:40;25.22;81.27
74923;HTU21D;64715;44.760;37.678;2023-07-09T03:52:42;25.25;81.23
74923;HTU21D;64715;44.760;37.678;2023-07-09T03:53:43;25.28;81.20
74923;HTU21D;64715;44.760;37.678;2023-07-09T03:54:44;25.29;81.26
74923;HTU21D;64715;44.760;37.678;2023-07-09T03:55:46;25.31;81.11
74923;HTU21D;64715;44.760;37.678;2023-07-09T03:56:47;25.33;81.16
74923;HTU21D;64715;44.760;37.678;2023-07-09T03:57:48;25.35;81.06
74923;HTU21D;64715;44.760;37.678;2023-07-09T03:58:49;25.38;81.10
74923;HTU21D;64715;44.760;37.678;2023-07-09T03:59:50;25.43;81.02
74923;HTU21D;64715;44.760;37.678;2023-07-09T04:00:51;25.45;81.00
74923;HTU21D;64715;44.760;37.678;2023-07-09T04:01:52;25.47;80.90
74923;HTU21D;64715;44.760;37.678;2023-07-09T04:02:53;25.50;80.86
74923;HTU21D;64715;44.760;37.678;2023-07-09T04:03:57;25.52;80.75
74923;HTU21D;64715;44.760;37.678;2023-07-09T04:04:58;25.56;80.63
74923;HTU21D;64715;44.760;37.678;2023-07-09T04:05:59;25.60;80.61
74923;HTU21D;64715;44.760;37.678;2023-07-09T04:07:00;25.64;80.56
74923;HTU21D;64715;44.760;37.678;2023-07-09T04:08:01;25.66;80.55
74923;HTU21D;64715;44.760;37.678;2023-07-09T04:09:02;25.69;80.43
74923;HTU21D;64715;44.760;37.678;2023-07-09T04:10:05;25.73;80.28
74923;HTU21D;64715;44.760;37.678;2023-07-09T04:11:07;25.76;80.24
74923;HTU21D;64715;44.760;37.678;2023-07-09T04:12:09;25.78;80.32
74923;HTU21D;64715;44.760;37.678;2023-07-09T04:13:10;25.81;80.17
74923;HTU21D;64715;44.760;37.678;2023-07-09T04:14:11;25.84;80.18
74923;HTU21D;64715;44.760;37.678;2023-07-09T04:15:12;25.87;80.20
74923;HTU21D;64715;44.760;37.678;2023-07-09T04:16:13;25.91;80.04
74923;HTU21D;64715;44.760;37.678;2023-07-09T04:17:16;25.95;79.98
74923;HTU21D;64715;44.760;37.678;2023-07-09T04:18:17;25.97;79.95
74923;HTU21D;64715;44.760;37.678;2023-07-09T04:19:18;26.03;79.96
74923;HTU21D;64715;44.760;37.678;2023-07-09T04:20:19;26.05;79.84
74923;HTU21D;64715;44.760;37.678;2023-07-09T04:21:20;26.08;79.73
74923;HTU21D;64715;44.760;37.678;2023-07-09T04:22:21;26.12;79.67
74923;HTU21D;64715;44.760;37.678;2023-07-09T04:23:22;26.15;79.53
74923;HTU21D;64715;44.760;37.678;2023-07-09T04:24:23;26.19;79.44
74923;HTU21D;64715;44.760;37.678;2023-07-09T04:25:24;26.21;79.30
74923;HTU21D;64715;44.760;37.678;2023-07-09T04:26:25;26.22;79.15
74923;HTU21D;64715;44.760;37.678;2023-07-09T04:27:26;26.23;79.16
74923;HTU21D;64715;44.760;37.678;2023-07-09T04:28:30;26.23;79.16
74923;HTU21D;64715;44.760;37.678;2023-07-09T04:29:32;26.24;79.00
74923;HTU21D;64715;44.760;37.678;2023-07-09T04:30:38;26.25;78.94
74923;HTU21D;64715;44.760;37.678;2023-07-09T04:31:40;26.26;78.95
74923;HTU21D;64715;44.760;37.678;2023-07-09T04:32:45;26.26;78.85
74923;HTU21D;64715;44.760;37.678;2023-07-09T04:33:46;26.30;78.77
74923;HTU21D;64715;44.760;37.678;2023-07-09T04:34:47;26.32;78.75
74923;HTU21D;64715;44.760;37.678;2023-07-09T04:35:48;26.34;78.78
74923;HTU21D;64715;44.760;37.678;2023-07-09T04:36:49;26.37;78.50
74923;HTU21D;64715;44.760;37.678;2023-07-09T04:37:50;26.40;78.57
74923;HTU21D;64715;44.760;37.678;2023-07-09T04:38:52;26.47;78.43
74923;HTU21D;64715;44.760;37.678;2023-07-09T04:39:53;26.49;78.42
74923;HTU21D;64715;44.760;37.678;2023-07-09T04:40:53;26.53;78.38
74923;HTU21D;64715;44.760;37.678;2023-07-09T04:41:54;26.58;78.44
74923;HTU21D;64715;44.760;37.678;2023-07-09T04:42:55;26.62;78.32
74923;HTU21D;64715;44.760;37.678;2023-07-09T04:43:57;26.65;78.11
74923;HTU21D;64715;44.760;37.678;2023-07-09T04:44:58;26.68;78.06
74923;HTU21D;64715;44.760;37.678;2023-07-09T04:45:59;26.71;77.95
74923;HTU21D;64715;44.760;37.678;2023-07-09T04:47:00;26.76;77.82
74923;HTU21D;64715;44.760;37.678;2023-07-09T04:48:01;26.80;77.75
74923;HTU21D;64715;44.760;37.678;2023-07-09T04:49:03;26.83;77.57
74923;HTU21D;64715;44.760;37.678;2023-07-09T04:50:05;26.85;77.55
74923;HTU21D;64715;44.760;37.678;2023-07-09T04:51:07;26.89;77.44
74923;HTU21D;64715;44.760;37.678;2023-07-09T04:52:08;26.92;77.41
74923;HTU21D;64715;44.760;37.678;2023-07-09T04:53:11;26.95;77.36
74923;HTU21D;64715;44.760;37.678;2023-07-09T04:54:13;26.98;77.18
74923;HTU21D;64715;44.760;37.678;2023-07-09T04:55:15;26.97;77.08
74923;HTU21D;64715;44.760;37.678;2023-07-09T04:56:19;26.97;76.95
74923;HTU21D;64715;44.760;37.678;2023-07-09T04:57:20;26.96;76.79
74923;HTU21D;64715;44.760;37.678;2023-07-09T04:58:21;26.95;76.75
74923;HTU21D;64715;44.760;37.678;2023-07-09T04:59:22;26.95;76.74
74923;HTU21D;64715;44.760;37.678;2023-07-09T05:00:25;26.94;76.64
74923;HTU21D;64715;44.760;37.678;2023-07-09T05:01:26;26.93;76.57
74923;HTU21D;64715;44.760;37.678;2023-07-09T05:02:27;26.93;76.48
74923;HTU21D;64715;44.760;37.678;2023-07-09T05:03:28;26.94;76.41
74923;HTU21D;64715;44.760;37.678;2023-07-09T05:04:30;26.93;76.36
74923;HTU21D;64715;44.760;37.678;2023-07-09T05:05:31;26.94;76.32
74923;HTU21D;64715;44.760;37.678;2023-07-09T05:06:33;26.95;76.31
74923;HTU21D;64715;44.760;37.678;2023-07-09T05:07:34;26.97;76.25
74923;HTU21D;64715;44.760;37.678;2023-07-09T05:08:37;26.97;76.22
74923;HTU21D;64715;44.760;37.678;2023-07-09T05:09:38;26.99;76.05
74923;HTU21D;64715;44.760;37.678;2023-07-09T05:10:43;26.99;76.19
74923;HTU21D;64715;44.760;37.678;2023-07-09T05:11:44;27.00;76.07
74923;HTU21D;64715;44.760;37.678;2023-07-09T05:12:50;26.98;75.83
74923;HTU21D;64715;44.760;37.678;2023-07-09T05:13:51;26.96;75.78
74923;HTU21D;64715;44.760;37.678;2023-07-09T05:14:53;26.95;75.93
74923;HTU21D;64715;44.760;37.678;2023-07-09T05:15:55;26.92;75.73
74923;HTU21D;64715;44.760;37.678;2023-07-09T05:16:56;26.91;75.66
74923;HTU21D;64715;44.760;37.678;2023-07-09T05:17:56;26.90;75.63
74923;HTU21D;64715;44.760;37.678;2023-07-09T05:18:57;26.91;75.67
74923;HTU21D;64715;44.760;37.678;2023-07-09T05:19:58;26.93;75.70
74923;HTU21D;64715;44.760;37.678;2023-07-09T05:20:59;26.94;75.62
74923;HTU21D;64715;44.760;37.678;2023-07-09T05:22:01;26.95;75.50
74923;HTU21D;64715;44.760;37.678;2023-07-09T05:23:02;26.96;75.34
74923;HTU21D;64715;44.760;37.678;2023-07-09T05:24:04;26.97;75.35
74923;HTU21D;64715;44.760;37.678;2023-07-09T05:25:05;26.99;75.29
74923;HTU21D;64715;44.760;37.678;2023-07-09T05:26:06;27.01;75.21
74923;HTU21D;64715;44.760;37.678;2023-07-09T05:27:07;27.02;75.20
74923;HTU21D;64715;44.760;37.678;2023-07-09T05:28:09;27.04;74.92
74923;HTU21D;64715;44.760;37.678;2023-07-09T05:29:10;27.05;74.88
74923;HTU21D;64715;44.760;37.678;2023-07-09T05:30:11;27.07;74.76
74923;HTU21D;64715;44.760;37.678;2023-07-09T05:31:12;27.09;74.59
74923;HTU21D;64715;44.760;37.678;2023-07-09T05:32:13;27.10;74.60
74923;HTU21D;64715;44.760;37.678;2023-07-09T05:33:14;27.11;74.49
74923;HTU21D;64715;44.760;37.678;2023-07-09T05:34:15;27.14;74.38
74923;HTU21D;64715;44.760;37.678;2023-07-09T05:35:16;27.16;74.40
74923;HTU21D;64715;44.760;37.678;2023-07-09T05:36:17;27.21;74.40
74923;HTU21D;64715;44.760;37.678;2023-07-09T05:37:20;27.27;74.51
74923;HTU21D;64715;44.760;37.678;2023-07-09T05:38:21;27.34;74.50
74923;HTU21D;64715;44.760;37.678;2023-07-09T05:39:22;27.42;74.52
74923;HTU21D;64715;44.760;37.678;2023-07-09T05:40:23;27.53;74.40
74923;HTU21D;64715;44.760;37.678;2023-07-09T05:41:24;27.63;74.25
74923;HTU21D;64715;44.760;37.678;2023-07-09T05:42:25;27.74;74.05
74923;HTU21D;64715;44.760;37.678;2023-07-09T05:43:27;27.84;73.82
74923;HTU21D;64715;44.760;37.678;2023-07-09T05:44:28;27.90;73.57
74923;HTU21D;64715;44.760;37.678;2023-07-09T05:45:29;27.96;73.22
74923;HTU21D;64715;44.760;37.678;2023-07-09T05:46:34;27.98;73.05
74923;HTU21D;64715;44.760;37.678;2023-07-09T05:47:36;28.02;72.89
74923;HTU21D;64715;44.760;37.678;2023-07-09T05:48:37;28.04;72.54
74923;HTU21D;64715;44.760;37.678;2023-07-09T05:49:40;28.03;72.41
74923;HTU21D;64715;44.760;37.678;2023-07-09T05:50:41;28.04;72.22
74923;HTU21D;64715;44.760;37.678;2023-07-09T05:51:42;28.01;72.14
74923;HTU21D;64715;44.760;37.678;2023-07-09T05:52:43;28.01;72.10
74923;HTU21D;64715;44.760;37.678;2023-07-09T05:53:44;27.98;71.93
74923;HTU21D;64715;44.760;37.678;2023-07-09T05:54:46;27.96;71.89
74923;HTU21D;64715;44.760;37.678;2023-07-09T05:55:48;27.95;71.93
74923;HTU21D;64715;44.760;37.678;2023-07-09T05:56:49;27.94;71.84
74923;HTU21D;64715;44.760;37.678;2023-07-09T05:57:52;27.93;71.82
74923;HTU21D;64715;44.760;37.678;2023-07-09T05:58:53;27.93;71.63
74923;HTU21D;64715;44.760;37.678;2023-07-09T05:59:54;27.90;71.61
74923;HTU21D;64715;44.760;37.678;2023-07-09T06:00:55;27.89;71.63
74923;HTU21D;64715;44.760;37.678;2023-07-09T06:01:58;27.90;71.55
74923;HTU21D;64715;44.760;37.678;2023-07-09T06:03:01;27.89;71.56
74923;HTU21D;64715;44.760;37.678;2023-07-09T06:04:03;27.87;71.45
74923;HTU21D;64715;44.760;37.678;2023-07-09T06:05:06;27.87;71.36
74923;HTU21D;64715;44.760;37.678;2023-07-09T06:06:09;27.87;71.40
74923;HTU21D;64715;44.760;37.678;2023-07-09T06:07:12;27.85;71.24
74923;HTU21D;64715;44.760;37.678;2023-07-09T06:08:15;27.88;71.25
74923;HTU21D;64715;44.760;37.678;2023-07-09T06:09:16;27.89;71.38
74923;HTU21D;64715;44.760;37.678;2023-07-09T06:10:17;27.93;71.41
74923;HTU21D;64715;44.760;37.678;2023-07-09T06:11:18;27.99;71.42
74923;HTU21D;64715;44.760;37.678;2023-07-09T06:12:19;28.05;71.32
74923;HTU21D;64715;44.760;37.678;2023-07-09T06:13:20;28.10;71.13
74923;HTU21D;64715;44.760;37.678;2023-07-09T06:14:22;28.14;71.06
74923;HTU21D;64715;44.760;37.678;2023-07-09T06:15:25;28.18;71.03
74923;HTU21D;64715;44.760;37.678;2023-07-09T06:16:26;28.24;70.85
74923;HTU21D;64715;44.760;37.678;2023-07-09T06:17:27;28.26;70.70
74923;HTU21D;64715;44.760;37.678;2023-07-09T06:18:29;28.29;70.61
74923;HTU21D;64715;44.760;37.678;2023-07-09T06:19:30;28.33;70.54
74923;HTU21D;64715;44.760;37.678;2023-07-09T06:20:33;28.34;70.47
74923;HTU21D;64715;44.760;37.678;2023-07-09T06:21:34;28.39;70.42
74923;HTU21D;64715;44.760;37.678;2023-07-09T06:22:35;28.43;70.28
74923;HTU21D;64715;44.760;37.678;2023-07-09T06:23:36;28.45;70.28